M I D A S
Marine Information and Data Acquisition System
Tripno 1641 of the Zeeleeuw from 2009-02-06 08:09:41 to 2009-02-06 17:33:33
Back to CruiseResearch ActivitiesStationsMapUnderway DataData graphs

EquipmentUnitsComment
TimeDGPSUTC
LatitudeDGPSDM.mWGS84
LongitudeDGPSDM.mWGS84
TemperatureSBE03/SBE38deg celciusITS90
ConductivitySBE21S/mITS90
SalinitySBE21 Practical Salinity Units
ChlorophylAChelsea fluorimeterg/lCalibrated in Aceton
Missing or incorrect values are displayed as -999
Sea surface data collected by the RV Zeeleeuw from 2009-02-06 08:03:12 to 2009-02-06 17:39:24
Time Latitude Longitude Temperature Conductivity Salinity ChlorophylA
2009-02-06 08:04:18 51°13.681 2°55.901 -999 0.029859 0.163805 -1.418457
2009-02-06 08:05:18 51°13.699 2°55.809 -999 0.029859 0.163802 -1.418457
2009-02-06 08:06:18 51°13.702 2°55.737 -999 0.029962 0.164373 -1.453281
2009-02-06 08:07:18 51°13.717 2°55.749 -999 0.026669 0.146097 -1.453281
2009-02-06 08:08:18 51°13.731 2°55.732 -999 0.028007 0.153519 -1.453281
2009-02-06 08:09:18 51°13.818 2°55.645 -999 0.026257 0.143884 -1.418457
2009-02-06 08:10:18 51°13.95 2°55.545 -999 0.026154 0.143301 -1.453281
2009-02-06 08:11:18 51°14.094 2°55.44 -999 0.026566 0.145572 -1.453281
2009-02-06 08:12:18 51°14.229 2°55.305 -999 0.025743 0.141082 -1.418457
2009-02-06 08:13:18 51°14.34 2°55.115 -999 0.025125 0.13768 -1.453281
2009-02-06 08:14:18 51°14.451 2°54.895 -999 0.024508 0.13427 -1.453281
2009-02-06 08:15:18 51°14.55 2°54.654 -999 0.02389 0.130899 -1.453281
2009-02-06 08:16:18 51°14.648 2°54.393 -999 0.023479 0.128649 -1.453281
2009-02-06 08:17:18 51°14.747 2°54.125 -999 0.023479 0.128662 -1.418457
2009-02-06 08:18:18 51°14.839 2°53.852 -999 0.023273 0.127532 -1.418457
2009-02-06 08:19:18 51°14.942 2°53.585 -999 0.02317 0.127027 -1.453281
2009-02-06 08:20:18 51°15.042 2°53.316 -999 0.023376 0.12815 -1.453281
2009-02-06 08:21:18 51°15.138 2°53.045 -999 0.022656 0.124222 -1.418457
2009-02-06 08:22:18 51°15.234 2°52.772 -999 0.022861 0.125352 -1.453281
2009-02-06 08:23:18 51°15.327 2°52.496 -999 0.022553 0.123671 -1.453281
2009-02-06 08:24:18 51°15.428 2°52.225 -999 0.022964 0.125919 -1.418457
2009-02-06 08:25:18 51°15.525 2°51.951 -999 0.021935 0.120304 -1.418457
2009-02-06 08:26:18 51°15.623 2°51.678 -999 0.022141 0.121431 -1.418457
2009-02-06 08:27:18 51°15.716 2°51.4 -999 0.021935 0.120323 -1.453281
2009-02-06 08:28:18 51°15.805 2°51.12 -999 0.022038 0.120892 -1.453281
2009-02-06 08:29:18 51°15.885 2°50.833 -999 0.022038 0.12089 -1.418457
2009-02-06 08:30:18 51°15.958 2°50.546 -999 0.021626 0.118655 -1.453281
2009-02-06 08:31:18 51°16.027 2°50.262 -999 0.022553 0.12372 -1.453281
2009-02-06 08:32:18 51°16.063 2°49.964 -999 0.021832 0.119794 -1.418457
2009-02-06 08:33:18 51°16.072 2°49.66 -999 0.021729 0.119231 -1.453281
2009-02-06 08:34:18 51°16.09 2°49.356 -999 0.021421 0.117561 -1.418457
2009-02-06 08:35:18 51°16.12 2°49.051 -999 0.021524 0.118131 -1.453281
2009-02-06 08:36:18 51°16.148 2°48.745 -999 0.021421 0.117575 -1.453281
2009-02-06 08:37:18 51°16.172 2°48.439 -999 0.021318 0.117024 -1.418457
2009-02-06 08:38:18 51°16.192 2°48.133 -999 0.021112 0.115912 -1.418457
2009-02-06 08:39:18 51°16.21 2°47.829 -999 0.021421 0.117596 -1.418457
2009-02-06 08:40:18 51°16.228 2°47.526 -999 0.021318 0.117043 -1.418457
2009-02-06 08:41:18 51°16.247 2°47.227 -999 0.021626 0.118727 -1.418457
2009-02-06 08:42:18 51°16.259 2°46.927 -999 0.021626 0.118725 -1.418457
2009-02-06 08:43:18 51°16.266 2°46.626 -999 0.021626 0.118725 -1.453281
2009-02-06 08:44:18 51°16.278 2°46.326 -999 0.020906 0.114818 -1.453281
2009-02-06 08:45:17 51°16.299 2°46.03 -999 0.021112 0.115936 -1.418457
2009-02-06 08:46:17 51°16.333 2°45.731 -999 0.020906 0.114822 -1.418457
2009-02-06 08:47:17 51°16.369 2°45.432 -999 0.0207 0.113707 -1.418457
2009-02-06 08:48:17 51°16.408 2°45.132 -999 0.021009 0.115369 -1.418457
2009-02-06 08:49:18 51°16.447 2°44.83 -999 0.021215 0.116489 -1.418457
2009-02-06 08:50:17 51°16.487 2°44.537 -999 0.020906 0.1148 -1.418457
2009-02-06 08:51:17 51°16.542 2°44.242 -999 0.0207 0.113673 -1.418457
2009-02-06 08:52:17 51°16.621 2°43.956 -999 0.021318 0.117018 -1.418457
2009-02-06 08:53:17 51°16.709 2°43.673 -999 0.021009 0.115325 -1.453281
2009-02-06 08:54:17 51°16.785 2°43.388 -999 0.021215 0.116426 -1.418457
2009-02-06 08:55:17 51°16.861 2°43.105 -999 0.021318 0.116963 -1.418457
2009-02-06 08:56:17 51°16.942 2°42.828 -999 0.021524 0.118068 -1.418457
2009-02-06 08:57:17 51°17.027 2°42.556 -999 0.021112 0.115804 -1.418457
2009-02-06 08:58:17 51°17.11 2°42.28 -999 0.021626 0.118579 -1.418457
2009-02-06 08:59:17 51°17.198 2°41.999 -999 0.020906 0.114647 -1.418457
2009-02-06 09:00:17 51°17.282 2°41.713 -999 0.021626 0.118541 -1.418457
2009-02-06 09:01:17 51°17.334 2°41.417 -999 0.020495 0.112375 -1.418457
2009-02-06 09:02:17 51°17.364 2°41.113 -999 0.020495 0.112344 -1.418457
2009-02-06 09:03:17 51°17.398 2°40.808 -999 0.020392 0.111763 -1.418457
2009-02-06 09:04:17 51°17.431 2°40.505 -999 0.0207 0.113417 -1.418457
2009-02-06 09:05:17 51°17.458 2°40.205 -999 0.020803 0.113947 -1.418457
2009-02-06 09:06:17 51°17.496 2°39.91 -999 0.020392 0.111703 -1.418457
2009-02-06 09:07:17 51°17.53 2°39.616 -999 0.020597 0.112765 -1.418457
2009-02-06 09:08:17 51°17.566 2°39.324 -999 0.020289 0.111073 -1.418457
2009-02-06 09:09:17 51°17.601 2°39.031 -999 0.020186 0.110476 -1.418457
2009-02-06 09:10:17 51°17.635 2°38.735 -999 0.020083 0.109869 -1.418457
2009-02-06 09:11:17 51°17.671 2°38.438 -999 0.020083 0.109848 -1.418457
2009-02-06 09:12:17 51°17.709 2°38.141 -999 0.01998 0.109291 -1.418457
2009-02-06 09:13:17 51°17.756 2°37.845 -999 0.020083 0.109814 -1.418457
2009-02-06 09:14:17 51°17.803 2°37.551 -999 0.019774 0.108168 -1.418457
2009-02-06 09:15:17 51°17.852 2°37.253 -999 0.019774 0.108134 -1.418457
2009-02-06 09:16:17 51°17.9 2°36.952 -999 0.020392 0.111477 -1.418457
2009-02-06 09:17:17 51°17.941 2°36.651 -999 0.019877 0.108673 -1.418457
2009-02-06 09:18:17 51°17.99 2°36.353 -999 0.01998 0.109222 -1.418457
2009-02-06 09:19:17 51°18.033 2°36.058 -999 0.019465 0.106444 -1.418457
2009-02-06 09:20:17 51°18.075 2°35.761 -999 0.019465 0.10642 -1.418457
2009-02-06 09:21:17 51°18.139 2°35.472 -999 0.01998 0.109242 -1.418457
2009-02-06 09:22:17 51°18.247 2°35.209 -999 0.019465 0.106476 -1.418457
2009-02-06 09:23:17 51°18.361 2°34.953 -999 0.019363 0.105968 -1.418457
2009-02-06 09:24:17 51°18.468 2°34.689 -999 0.019465 0.106571 -1.418457
2009-02-06 09:25:17 51°18.577 2°34.425 -999 0.01926 0.105546 -1.418457
2009-02-06 09:26:17 51°18.677 2°34.155 -999 0.019363 0.106164 -1.418457
2009-02-06 09:27:17 51°18.733 2°33.863 -999 0.019363 0.106159 -1.418457
2009-02-06 09:28:17 51°18.762 2°33.564 -999 0.01926 0.105671 -1.418457
2009-02-06 09:29:17 51°18.793 2°33.262 -999 0.019465 0.10681 -1.418457
2009-02-06 09:30:17 51°18.823 2°32.96 -999 0.01926 0.105688 -1.418457
2009-02-06 09:31:17 51°18.86 2°32.659 -999 0.01926 0.105713 -1.418457
2009-02-06 09:32:17 51°18.879 2°32.355 -999 0.019363 0.106261 -1.418457
2009-02-06 09:33:17 51°18.897 2°32.052 -999 0.01926 0.105707 -1.418457
2009-02-06 09:34:17 51°18.918 2°31.75 -999 0.01926 0.105723 -1.418457
2009-02-06 09:35:17 51°18.939 2°31.447 -999 0.01926 0.105771 -1.418457
2009-02-06 09:36:17 51°18.96 2°31.14 -999 0.019363 0.106308 -1.418457
2009-02-06 09:37:17 51°18.976 2°30.834 -999 0.01926 0.105764 -1.418457
2009-02-06 09:38:17 51°18.993 2°30.528 -999 0.019363 0.106344 -1.418457
2009-02-06 09:39:17 51°19.009 2°30.224 -999 0.019363 0.106346 -1.418457
2009-02-06 09:40:17 51°19.027 2°29.924 -999 0.019568 0.107496 -1.418457
2009-02-06 09:41:17 51°19.043 2°29.632 -999 0.01926 0.105813 -1.418457
2009-02-06 09:42:17 51°19.061 2°29.343 -999 0.019465 0.106964 -1.418457
2009-02-06 09:43:17 51°19.067 2°29.057 -999 0.021112 0.115929 -1.418457
2009-02-06 09:44:17 51°19.017 2°28.781 -999 0.01998 0.109782 -1.418457
2009-02-06 09:45:17 51°18.925 2°28.531 -999 0.019877 0.109231 -1.418457
2009-02-06 09:46:17 51°18.817 2°28.299 -999 0.019157 0.105344 -1.418457
2009-02-06 09:47:17 51°18.699 2°28.077 -999 0.019157 0.105358 -1.418457
2009-02-06 09:48:17 51°18.582 2°27.856 -999 0.019363 0.106491 -1.418457
2009-02-06 09:49:17 51°18.471 2°27.628 -999 0.01926 0.105949 -1.418457
2009-02-06 09:50:17 51°18.353 2°27.411 -999 0.019054 0.104841 -1.418457
2009-02-06 09:51:17 51°18.232 2°27.199 -999 0.019054 0.104866 -1.418457
2009-02-06 09:52:17 51°18.111 2°26.991 -999 0.019465 0.107093 -1.418457
2009-02-06 09:53:17 51°18.006 2°26.762 -999 0.01926 0.106 -1.418457
2009-02-06 09:54:17 51°17.894 2°26.54 -999 0.019157 0.105452 -1.418457
2009-02-06 09:55:17 51°17.783 2°26.318 -999 0.019157 0.105478 -1.418457
2009-02-06 09:56:17 51°17.683 2°26.117 -999 0.01998 0.109978 -1.383633
2009-02-06 09:57:17 51°17.583 2°25.929 -999 0.01998 0.109994 -1.418457
2009-02-06 09:58:17 51°17.49 2°25.731 -999 0.020186 0.111109 -1.383633
2009-02-06 09:59:18 51°17.391 2°25.543 -999 0.020083 0.110562 -1.418457
2009-02-06 10:00:18 51°17.304 2°25.383 -999 0.020186 0.111135 -1.383633
2009-02-06 10:01:18 51°17.249 2°25.284 -999 0.0207 0.113961 -1.418457
2009-02-06 10:02:18 51°17.223 2°25.228 -999 0.0207 0.113983 -1.418457
2009-02-06 10:03:18 51°17.201 2°25.191 -999 0.020597 0.113431 -1.418457
2009-02-06 10:04:18 51°17.178 2°25.139 -999 0.021524 0.118563 -1.418457
2009-02-06 10:05:18 51°17.163 2°25.123 -999 0.021318 0.117403 -1.418457
2009-02-06 10:06:18 51°17.163 2°25.113 -999 0.021318 0.117445 -1.418457
2009-02-06 10:07:18 51°17.168 2°25.108 -999 0.021215 0.116908 -1.383633
2009-02-06 10:08:18 51°17.174 2°25.107 -999 0.021318 0.11749 -1.383633
2009-02-06 10:09:18 51°17.18 2°25.113 -999 0.021421 0.118066 -1.383633
2009-02-06 10:10:18 51°17.18 2°25.129 -999 0.021009 0.115832 -1.418457
2009-02-06 10:11:18 51°17.176 2°25.135 -999 0.021112 0.116402 -1.383633
2009-02-06 10:12:18 51°17.176 2°25.123 -999 0.021524 0.118702 -1.383633
2009-02-06 10:13:18 51°17.169 2°25.121 -999 0.021009 0.115893 -1.383633
2009-02-06 10:14:18 51°17.166 2°25.113 -999 0.020906 0.115359 -1.383633
2009-02-06 10:15:18 51°17.17 2°25.114 -999 0.021215 0.117094 -1.383633
2009-02-06 10:16:18 51°17.171 2°25.122 -999 0.021112 0.116523 -1.418457
2009-02-06 10:17:18 51°17.161 2°25.119 -999 0.021112 0.116539 -1.383633
2009-02-06 10:18:18 51°17.154 2°25.11 -999 0.020803 0.114869 -1.383633
2009-02-06 10:19:18 51°17.159 2°25.111 -999 0.021009 0.116025 -1.383633
2009-02-06 10:20:18 51°17.171 2°25.12 -999 0.020803 0.114896 -1.383633
2009-02-06 10:21:18 51°17.187 2°25.132 -999 0.020803 0.114907 -1.383633
2009-02-06 10:22:18 51°17.201 2°25.143 -999 0.020906 0.115509 -1.383633
2009-02-06 10:23:18 51°17.192 2°25.149 -999 0.020597 0.113835 -1.383633
2009-02-06 10:24:18 51°17.161 2°25.122 -999 0.020803 0.114983 -1.383633
2009-02-06 10:25:18 51°17.143 2°25.093 -999 0.020597 0.113891 -1.383633
2009-02-06 10:26:18 51°17.14 2°25.084 -999 0.0207 0.114472 -1.383633
2009-02-06 10:27:18 51°17.147 2°25.084 -999 0.020597 0.11394 -1.383633
2009-02-06 10:28:18 51°17.165 2°25.098 -999 0.020495 0.113406 -1.383633
2009-02-06 10:29:18 51°17.191 2°25.119 -999 0.021112 0.116854 -1.383633
2009-02-06 10:30:18 51°17.193 2°25.116 -999 0.020803 0.115188 -1.383633
2009-02-06 10:31:18 51°17.185 2°25.117 -999 0.020906 0.11573 -1.383633
2009-02-06 10:32:18 51°17.174 2°25.118 -999 0.020803 0.11522 -1.383633
2009-02-06 10:33:18 51°17.162 2°25.109 -999 0.020803 0.115271 -1.383633
2009-02-06 10:34:18 51°17.16 2°25.109 -999 0.020803 0.115298 -1.348809
2009-02-06 10:35:18 51°17.165 2°25.109 -999 0.020597 0.114178 -1.348809
2009-02-06 10:36:18 51°17.173 2°25.115 -999 0.020597 0.11422 -1.383633
2009-02-06 10:37:18 51°17.165 2°25.123 -999 0.020906 0.11595 -1.383633
2009-02-06 10:38:18 51°17.142 2°25.113 -999 0.020495 0.113711 -1.383633
2009-02-06 10:39:18 51°17.131 2°25.084 -999 0.021009 0.116617 -1.383633
2009-02-06 10:40:18 51°17.118 2°25.085 -999 0.020906 0.116079 -1.348809
2009-02-06 10:41:18 51°17.102 2°25.105 -999 0.020495 0.113816 -1.348809
2009-02-06 10:42:18 51°17.104 2°25.11 -999 0.020186 0.112166 -1.383633
2009-02-06 10:43:18 51°17.126 2°25.064 -999 0.019877 0.110502 -1.348809
2009-02-06 10:44:18 51°17.183 2°25.059 -999 0.01998 0.111145 -1.348809
2009-02-06 10:45:19 51°17.191 2°25.07 -999 0.020597 0.114631 -1.348809
2009-02-06 10:46:18 51°17.216 2°25.092 -999 0.020906 0.11634 -1.348809
2009-02-06 10:47:19 51°17.212 2°25.087 -999 0.020597 0.114658 -1.348809
2009-02-06 10:48:18 51°17.183 2°25.093 -999 0.021112 0.117533 -1.348809
2009-02-06 10:49:18 51°17.167 2°25.119 -999 0.021009 0.116975 -1.348809
2009-02-06 10:50:18 51°17.162 2°25.15 -999 0.020906 0.116459 -1.348809
2009-02-06 10:51:18 51°17.166 2°25.18 -999 0.021112 0.117619 -1.348809
2009-02-06 10:52:18 51°17.178 2°25.211 -999 0.020906 0.116532 -1.348809
2009-02-06 10:53:18 51°17.195 2°25.24 -999 0.021112 0.117706 -1.348809
2009-02-06 10:54:18 51°17.218 2°25.267 -999 0.021009 0.117155 -1.348809
2009-02-06 10:55:18 51°17.241 2°25.28 -999 0.021112 0.117759 -1.313985
2009-02-06 10:56:18 51°17.259 2°25.277 -999 0.021112 0.117767 -1.348809
2009-02-06 10:57:18 51°17.273 2°25.276 -999 0.021112 0.117795 -1.348809
2009-02-06 10:58:18 51°17.29 2°25.282 -999 0.021112 0.11782 -1.348809
2009-02-06 10:59:18 51°17.307 2°25.289 -999 0.021318 0.118998 -1.313985
2009-02-06 11:00:18 51°17.31 2°25.281 -999 0.021112 0.117884 -1.313985
2009-02-06 11:01:18 51°17.292 2°25.259 -999 0.020906 0.116765 -1.313985
2009-02-06 11:02:18 51°17.265 2°25.228 -999 0.021318 0.119109 -1.313985
2009-02-06 11:03:18 51°17.237 2°25.201 -999 0.021112 0.117973 -1.313985
2009-02-06 11:04:18 51°17.214 2°25.176 -999 0.021112 0.117995 -1.313985
2009-02-06 11:05:18 51°17.191 2°25.153 -999 0.021421 0.119753 -1.313985
2009-02-06 11:06:18 51°17.169 2°25.136 -999 0.021318 0.119157 -1.313985
2009-02-06 11:07:18 51°17.154 2°25.102 -999 0.021215 0.118644 -1.313985
2009-02-06 11:08:18 51°17.14 2°25.064 -999 0.021112 0.118084 -1.313985
2009-02-06 11:09:18 51°17.135 2°25.05 -999 0.020906 0.116963 -1.313985
2009-02-06 11:10:18 51°17.139 2°25.046 -999 0.021009 0.117529 -1.313985
2009-02-06 11:11:18 51°17.148 2°25.047 -999 0.020803 0.116418 -1.313985
2009-02-06 11:12:18 51°17.161 2°25.052 -999 0.021215 0.118741 -1.313985
2009-02-06 11:13:18 51°17.176 2°25.059 -999 0.021112 0.118181 -1.279161
2009-02-06 11:14:18 51°17.194 2°25.068 -999 0.020803 0.116499 -1.313985
2009-02-06 11:15:18 51°17.213 2°25.077 -999 0.020906 0.117117 -1.313985
2009-02-06 11:16:18 51°17.234 2°25.088 -999 0.020906 0.117172 -1.313985
2009-02-06 11:17:18 51°17.254 2°25.1 -999 0.020803 0.11663 -1.279161
2009-02-06 11:18:18 51°17.275 2°25.112 -999 0.020803 0.116681 -1.313985
2009-02-06 11:19:18 51°17.297 2°25.124 -999 0.0207 0.116147 -1.279161
2009-02-06 11:20:18 51°17.319 2°25.136 -999 0.0207 0.116184 -1.279161
2009-02-06 11:21:18 51°17.341 2°25.149 -999 0.020803 0.116802 -1.313985
2009-02-06 11:22:18 51°17.363 2°25.163 -999 0.020495 0.11511 -1.279161
2009-02-06 11:23:18 51°17.385 2°25.176 -999 0.020392 0.114584 -1.279161
2009-02-06 11:24:18 51°17.407 2°25.19 -999 0.0207 0.116337 -1.279161
2009-02-06 11:25:18 51°17.429 2°25.203 -999 0.020598 0.115807 -1.279161
2009-02-06 11:26:18 51°17.451 2°25.218 -999 0.020495 0.115252 -1.279161
2009-02-06 11:27:18 51°17.472 2°25.232 -999 0.020598 0.115878 -1.279161
2009-02-06 11:28:18 51°17.494 2°25.246 -999 0.0207 0.116493 -1.279161
2009-02-06 11:29:18 51°17.515 2°25.259 -999 0.020495 0.1154 -1.279161
2009-02-06 11:30:18 51°17.536 2°25.268 -999 0.020803 0.117196 -1.279161
2009-02-06 11:31:18 51°17.528 2°25.249 -999 0.021112 0.11896 -1.279161
2009-02-06 11:32:18 51°17.464 2°25.237 -999 0.020598 0.116074 -1.279161
2009-02-06 11:33:18 51°17.381 2°25.218 -999 0.020495 0.115549 -1.279161
2009-02-06 11:34:18 51°17.32 2°25.223 -999 0.020289 0.114433 -1.279161
2009-02-06 11:35:18 51°17.281 2°25.228 -999 0.020186 0.113889 -1.279161
2009-02-06 11:36:18 51°17.268 2°25.208 -999 0.020289 0.114524 -1.279161
2009-02-06 11:37:18 51°17.27 2°25.19 -999 0.020598 0.116282 -1.279161
2009-02-06 11:38:18 51°17.275 2°25.177 -999 0.020392 0.11516 -1.279161
2009-02-06 11:39:18 51°17.294 2°25.126 -999 0.019774 0.111703 -1.279161
2009-02-06 11:40:18 51°17.375 2°25.088 -999 0.020289 0.114654 -1.279161
2009-02-06 11:41:18 51°17.522 2°25.118 -999 0.020083 0.113522 -1.279161
2009-02-06 11:42:18 51°17.7 2°25.142 -999 0.019774 0.111841 -1.279161
2009-02-06 11:43:18 51°17.902 2°25.164 -999 0.019877 0.112491 -1.279161
2009-02-06 11:44:18 51°18.12 2°25.196 -999 0.019466 0.11023 -1.279161
2009-02-06 11:45:18 51°18.336 2°25.214 -999 0.019466 0.110342 -1.279161
2009-02-06 11:46:18 51°18.552 2°25.227 -999 0.019568 0.110988 -1.244337
2009-02-06 11:47:18 51°18.768 2°25.249 -999 0.019466 0.110563 -1.279161
2009-02-06 11:48:18 51°18.983 2°25.269 -999 0.019877 0.112865 -1.279161
2009-02-06 11:49:18 51°19.197 2°25.285 -999 0.019363 0.110053 -1.279161
2009-02-06 11:50:18 51°19.413 2°25.303 -999 0.019363 0.110092 -1.279161
2009-02-06 11:51:18 51°19.627 2°25.315 -999 0.019671 0.111901 -1.244337
2009-02-06 11:52:18 51°19.842 2°25.344 -999 0.019363 0.110263 -1.279161
2009-02-06 11:53:18 51°20.055 2°25.406 -999 0.01926 0.109725 -1.279161
2009-02-06 11:54:18 51°20.268 2°25.47 -999 0.019466 0.110918 -1.244337
2009-02-06 11:55:18 51°20.481 2°25.536 -999 0.019054 0.108616 -1.244337
2009-02-06 11:56:18 51°20.695 2°25.59 -999 0.019774 0.11272 -1.279161
2009-02-06 11:57:18 51°20.91 2°25.605 -999 0.019363 0.110467 -1.244337
2009-02-06 11:58:18 51°21.125 2°25.593 -999 0.019568 0.111663 -1.279161
2009-02-06 11:59:18 51°21.342 2°25.594 -999 0.019466 0.11111 -1.244337
2009-02-06 12:00:18 51°21.556 2°25.581 -999 0.019054 0.108805 -1.244337
2009-02-06 12:01:18 51°21.772 2°25.575 -999 0.01926 0.109989 -1.244337
2009-02-06 12:02:18 51°21.988 2°25.577 -999 0.019877 0.113629 -1.244337
2009-02-06 12:03:18 51°22.203 2°25.574 -999 0.01926 0.110097 -1.244337
2009-02-06 12:04:18 51°22.419 2°25.566 -999 0.01926 0.11011 -1.244337
2009-02-06 12:05:18 51°22.636 2°25.56 -999 0.01926 0.110139 -1.244337
2009-02-06 12:06:18 51°22.853 2°25.563 -999 0.019569 0.111917 -1.279161
2009-02-06 12:07:18 51°23.072 2°25.569 -999 0.01926 0.110229 -1.244337
2009-02-06 12:08:18 51°23.291 2°25.574 -999 0.018848 0.107927 -1.244337
2009-02-06 12:09:18 51°23.492 2°25.713 -999 0.01926 0.11037 -1.244337
2009-02-06 12:10:18 51°23.688 2°25.878 -999 0.01926 0.110387 -1.244337
2009-02-06 12:11:18 51°23.889 2°26.03 -999 0.019671 0.112716 -1.244337
2009-02-06 12:12:18 51°24.09 2°26.182 -999 0.01998 0.114476 -1.279161
2009-02-06 12:13:18 51°24.294 2°26.326 -999 0.019363 0.111003 -1.244337
2009-02-06 12:14:18 51°24.5 2°26.462 -999 0.019877 0.113952 -1.244337
2009-02-06 12:15:18 51°24.704 2°26.598 -999 0.019671 0.112827 -1.244337
2009-02-06 12:16:18 51°24.909 2°26.732 -999 0.019363 0.111119 -1.244337
2009-02-06 12:17:18 51°25.112 2°26.87 -999 0.019569 0.11231 -1.244337
2009-02-06 12:18:18 51°25.311 2°27.011 -999 0.019363 0.111176 -1.244337
2009-02-06 12:19:18 51°25.506 2°27.143 -999 0.019671 0.112972 -1.244337
2009-02-06 12:20:18 51°25.709 2°27.198 -999 0.01926 0.110788 -1.244337
2009-02-06 12:21:18 51°25.915 2°27.114 -999 0.018848 0.108416 -1.244337
2009-02-06 12:22:18 51°26.1 2°26.958 -999 0.01926 0.110786 -1.244337
2009-02-06 12:23:18 51°26.24 2°26.722 -999 0.01926 0.110871 -1.244337
2009-02-06 12:24:18 51°26.333 2°26.435 -999 0.018848 0.108561 -1.244337
2009-02-06 12:25:18 51°26.437 2°26.155 -999 0.019054 0.109785 -1.244337
2009-02-06 12:26:18 51°26.557 2°25.887 -999 0.019363 0.111551 -1.244337
2009-02-06 12:27:18 51°26.669 2°25.611 -999 0.019157 0.110384 -1.244337
2009-02-06 12:28:18 51°26.767 2°25.325 -999 0.019054 0.109831 -1.244337
2009-02-06 12:29:18 51°26.873 2°25.044 -999 0.019054 0.109835 -1.244337
2009-02-06 12:30:18 51°26.978 2°24.764 -999 0.019054 0.109844 -1.244337
2009-02-06 12:31:18 51°27.083 2°24.485 -999 0.019363 0.111619 -1.244337
2009-02-06 12:32:18 51°27.186 2°24.202 -999 0.018745 0.108116 -1.244337
2009-02-06 12:33:18 51°27.281 2°23.916 -999 0.01926 0.111049 -1.244337
2009-02-06 12:34:18 51°27.379 2°23.631 -999 0.018951 0.109312 -1.244337
2009-02-06 12:35:18 51°27.48 2°23.349 -999 0.019466 0.112288 -1.244337
2009-02-06 12:36:18 51°27.582 2°23.068 -999 0.018848 0.108813 -1.244337
2009-02-06 12:37:18 51°27.684 2°22.785 -999 0.019363 0.111783 -1.244337
2009-02-06 12:38:18 51°27.788 2°22.505 -999 0.019363 0.111804 -1.244337
2009-02-06 12:39:18 51°27.896 2°22.224 -999 0.019363 0.111839 -1.244337
2009-02-06 12:40:18 51°27.999 2°21.94 -999 0.019054 0.110112 -1.244337
2009-02-06 12:41:18 51°28.103 2°21.656 -999 0.019466 0.112512 -1.244337
2009-02-06 12:42:18 51°28.204 2°21.37 -999 0.019157 0.110761 -1.244337
2009-02-06 12:43:18 51°28.292 2°21.076 -999 0.018848 0.109004 -1.244337
2009-02-06 12:44:18 51°28.381 2°20.782 -999 0.01926 0.111402 -1.244337
2009-02-06 12:45:18 51°28.472 2°20.489 -999 0.01926 0.11141 -1.244337
2009-02-06 12:46:18 51°28.559 2°20.195 -999 0.019157 0.110847 -1.244337
2009-02-06 12:47:18 51°28.649 2°19.903 -999 0.019054 0.110276 -1.244337
2009-02-06 12:48:18 51°28.736 2°19.609 -999 0.01926 0.111472 -1.244337
2009-02-06 12:49:18 51°28.819 2°19.353 -999 0.019671 0.113888 -1.244337
2009-02-06 12:50:18 51°28.881 2°19.169 -999 0.01998 0.115705 -1.244337
2009-02-06 12:51:18 51°28.941 2°18.99 -999 0.01998 0.115725 -1.244337
2009-02-06 12:52:18 51°28.997 2°18.806 -999 0.020083 0.11633 -1.244337
2009-02-06 12:53:18 51°29.039 2°18.618 -999 0.020083 0.11633 -1.244337
2009-02-06 12:54:18 51°29.073 2°18.472 -999 0.020289 0.117562 -1.244337
2009-02-06 12:55:18 51°29.103 2°18.367 -999 0.020289 0.117587 -1.244337
2009-02-06 12:56:18 51°29.125 2°18.298 -999 0.020289 0.117612 -1.244337
2009-02-06 12:57:18 51°29.14 2°18.259 -999 0.020289 0.117616 -1.244337
2009-02-06 12:58:18 51°29.156 2°18.254 -999 0.019877 0.115255 -1.244337
2009-02-06 12:59:18 51°29.171 2°18.289 -999 0.020495 0.118848 -1.244337
2009-02-06 13:00:18 51°29.182 2°18.321 -999 0.020392 0.118285 -1.244337
2009-02-06 13:01:18 51°29.198 2°18.334 -999 0.020701 0.120131 -1.244337
2009-02-06 13:02:18 51°29.213 2°18.267 -999 0.021421 0.124324 -1.244337
2009-02-06 13:03:18 51°29.184 2°18.231 -999 0.020701 0.120124 -1.244337
2009-02-06 13:04:18 51°29.158 2°18.244 -999 0.020289 0.117756 -1.244337
2009-02-06 13:05:18 51°29.138 2°18.263 -999 0.020186 0.117199 -1.244337
2009-02-06 13:06:18 51°29.137 2°18.276 -999 0.020495 0.119011 -1.244337
2009-02-06 13:07:18 51°29.127 2°18.307 -999 0.020289 0.117838 -1.244337
2009-02-06 13:08:18 51°29.128 2°18.332 -999 0.020289 0.117869 -1.244337
2009-02-06 13:09:18 51°29.136 2°18.354 -999 0.020083 0.116696 -1.244337
2009-02-06 13:10:18 51°29.147 2°18.372 -999 0.020289 0.117909 -1.244337
2009-02-06 13:11:18 51°29.161 2°18.385 -999 0.020083 0.116744 -1.244337
2009-02-06 13:12:18 51°29.175 2°18.396 -999 0.020392 0.118566 -1.244337
2009-02-06 13:13:18 51°29.191 2°18.405 -999 0.020186 0.117389 -1.244337
2009-02-06 13:14:18 51°29.203 2°18.428 -999 0.019569 0.113826 -1.244337
2009-02-06 13:15:18 51°29.157 2°18.446 -999 0.019774 0.115104 -1.244337
2009-02-06 13:16:18 51°29.143 2°18.382 -999 0.020906 0.121844 -1.244337
2009-02-06 13:17:18 51°29.144 2°18.336 -999 0.021009 0.122491 -1.244337
2009-02-06 13:18:18 51°29.146 2°18.305 -999 0.021318 0.124299 -1.279161
2009-02-06 13:19:18 51°29.137 2°18.277 -999 0.021215 0.123707 -1.244337
2009-02-06 13:20:18 51°29.133 2°18.263 -999 0.021112 0.123119 -1.244337
2009-02-06 13:21:18 51°29.135 2°18.252 -999 0.020906 0.121912 -1.244337
2009-02-06 13:22:18 51°29.134 2°18.241 -999 0.021318 0.124362 -1.244337
2009-02-06 13:23:18 51°29.116 2°18.246 -999 0.021421 0.124982 -1.244337
2009-02-06 13:24:18 51°29.108 2°18.281 -999 0.021215 0.123745 -1.279161
2009-02-06 13:25:18 51°29.111 2°18.31 -999 0.021215 0.123756 -1.244337
2009-02-06 13:26:18 51°29.12 2°18.328 -999 0.021112 0.123163 -1.244337
2009-02-06 13:27:18 51°29.134 2°18.33 -999 0.021112 0.123183 -1.244337
2009-02-06 13:28:18 51°29.151 2°18.333 -999 0.021112 0.12319 -1.279161
2009-02-06 13:29:18 51°29.167 2°18.369 -999 0.021318 0.124421 -1.244337
2009-02-06 13:30:18 51°29.174 2°18.447 -999 0.020392 0.118965 -1.244337
2009-02-06 13:31:18 51°29.147 2°18.497 -999 0.020495 0.119617 -1.244337
2009-02-06 13:32:18 51°29.115 2°18.477 -999 0.020598 0.120227 -1.244337
2009-02-06 13:33:18 51°29.11 2°18.425 -999 0.021112 0.123264 -1.279161
2009-02-06 13:34:18 51°29.11 2°18.383 -999 0.021215 0.123872 -1.244337
2009-02-06 13:35:18 51°29.113 2°18.354 -999 0.021215 0.123897 -1.244337
2009-02-06 13:36:18 51°29.119 2°18.331 -999 0.021215 0.123908 -1.244337
2009-02-06 13:37:18 51°29.127 2°18.312 -999 0.021112 0.123313 -1.279161
2009-02-06 13:38:18 51°29.138 2°18.297 -999 0.021215 0.123926 -1.244337
2009-02-06 13:39:18 51°29.148 2°18.284 -999 0.020906 0.122113 -1.244337
2009-02-06 13:40:18 51°29.158 2°18.271 -999 0.021112 0.123326 -1.244337
2009-02-06 13:41:18 51°29.162 2°18.246 -999 0.021112 0.123351 -1.244337
2009-02-06 13:42:18 51°29.159 2°18.217 -999 0.021215 0.123944 -1.244337
2009-02-06 13:43:18 51°29.149 2°18.195 -999 0.021009 0.122761 -1.279161
2009-02-06 13:44:18 51°29.138 2°18.181 -999 0.020803 0.121548 -1.244337
2009-02-06 13:45:18 51°29.121 2°18.173 -999 0.021009 0.122766 -1.244337
2009-02-06 13:46:18 51°29.1 2°18.166 -999 0.020906 0.122208 -1.279161
2009-02-06 13:47:18 51°29.076 2°18.162 -999 0.020906 0.12223 -1.244337
2009-02-06 13:48:18 51°29.06 2°18.178 -999 0.020906 0.122234 -1.244337
2009-02-06 13:49:18 51°29.058 2°18.203 -999 0.020803 0.121636 -1.244337
2009-02-06 13:50:18 51°29.065 2°18.222 -999 0.020701 0.121053 -1.244337
2009-02-06 13:51:18 51°29.074 2°18.237 -999 0.020803 0.121673 -1.244337
2009-02-06 13:52:18 51°29.082 2°18.251 -999 0.020701 0.121088 -1.279161
2009-02-06 13:53:18 51°29.084 2°18.271 -999 0.020701 0.121101 -1.244337
2009-02-06 13:54:18 51°29.078 2°18.288 -999 0.020803 0.121722 -1.279161
2009-02-06 13:55:18 51°29.054 2°18.303 -999 0.021009 0.122973 -1.244337
2009-02-06 13:56:18 51°29.036 2°18.343 -999 0.021112 0.123606 -1.244337
2009-02-06 13:57:18 51°29.05 2°18.391 -999 0.020803 0.121753 -1.279161
2009-02-06 13:58:18 51°29.069 2°18.419 -999 0.020803 0.121757 -1.244337
2009-02-06 13:59:18 51°29.084 2°18.439 -999 0.020803 0.121792 -1.244337
2009-02-06 14:00:18 51°29.096 2°18.452 -999 0.020803 0.121812 -1.279161
2009-02-06 14:01:18 51°29.107 2°18.46 -999 0.020803 0.12183 -1.244337
2009-02-06 14:02:18 51°29.117 2°18.465 -999 0.020906 0.122465 -1.244337
2009-02-06 14:03:18 51°29.128 2°18.468 -999 0.020803 0.121898 -1.279161
2009-02-06 14:04:18 51°29.138 2°18.468 -999 0.020803 0.121929 -1.279161
2009-02-06 14:05:18 51°29.149 2°18.467 -999 0.020906 0.12254 -1.244337
2009-02-06 14:06:18 51°29.16 2°18.462 -999 0.020803 0.121971 -1.244337
2009-02-06 14:07:18 51°29.172 2°18.457 -999 0.020803 0.121998 -1.279161
2009-02-06 14:08:18 51°29.183 2°18.45 -999 0.020803 0.122031 -1.244337
2009-02-06 14:09:18 51°29.193 2°18.442 -999 0.020906 0.122665 -1.244337
2009-02-06 14:10:18 51°29.202 2°18.432 -999 0.020803 0.122084 -1.244337
2009-02-06 14:11:18 51°29.211 2°18.423 -999 0.020701 0.121535 -1.244337
2009-02-06 14:12:18 51°29.221 2°18.414 -999 0.020701 0.121557 -1.244337
2009-02-06 14:13:18 51°29.229 2°18.405 -999 0.020803 0.12218 -1.244337
2009-02-06 14:14:18 51°29.238 2°18.395 -999 0.020598 0.120993 -1.279161
2009-02-06 14:15:18 51°29.247 2°18.384 -999 0.020701 0.121654 -1.279161
2009-02-06 14:16:18 51°29.255 2°18.374 -999 0.020598 0.121061 -1.244337
2009-02-06 14:17:18 51°29.263 2°18.363 -999 0.020495 0.120515 -1.244337
2009-02-06 14:18:18 51°29.27 2°18.351 -999 0.020701 0.121754 -1.279161
2009-02-06 14:19:18 51°29.278 2°18.34 -999 0.020598 0.121161 -1.279161
2009-02-06 14:20:18 51°29.286 2°18.328 -999 0.020701 0.121829 -1.279161
2009-02-06 14:21:18 51°29.293 2°18.315 -999 0.020495 0.120646 -1.244337
2009-02-06 14:22:18 51°29.3 2°18.302 -999 0.020495 0.120684 -1.244337
2009-02-06 14:23:18 51°29.307 2°18.289 -999 0.020495 0.120721 -1.244337
2009-02-06 14:24:18 51°29.313 2°18.276 -999 0.020495 0.120761 -1.244337
2009-02-06 14:25:18 51°29.32 2°18.265 -999 0.020598 0.1214 -1.244337
2009-02-06 14:26:18 51°29.33 2°18.265 -999 0.020495 0.120827 -1.244337
2009-02-06 14:27:19 51°29.338 2°18.277 -999 0.020289 0.119677 -1.279161
2009-02-06 14:28:18 51°29.342 2°18.29 -999 0.020392 0.120314 -1.244337
2009-02-06 14:29:19 51°29.346 2°18.297 -999 0.020392 0.120362 -1.244337
2009-02-06 14:30:18 51°29.351 2°18.295 -999 0.020186 0.119184 -1.244337
2009-02-06 14:31:19 51°29.36 2°18.264 -999 0.020289 0.119817 -1.244337
2009-02-06 14:32:18 51°29.366 2°18.232 -999 0.020392 0.120479 -1.244337
2009-02-06 14:33:19 51°29.369 2°18.242 -999 0.019569 0.115621 -1.244337
2009-02-06 14:34:18 51°29.362 2°18.269 -999 0.01998 0.118119 -1.279161
2009-02-06 14:35:18 51°29.374 2°18.252 -999 0.020392 0.120643 -1.244337
2009-02-06 14:36:19 51°29.345 2°18.263 -999 0.020392 0.120672 -1.279161
2009-02-06 14:37:18 51°29.319 2°18.252 -999 0.020495 0.121325 -1.279161
2009-02-06 14:38:19 51°29.298 2°18.244 -999 0.020495 0.121338 -1.244337
2009-02-06 14:39:18 51°29.282 2°18.238 -999 0.020598 0.121949 -1.244337
2009-02-06 14:40:19 51°29.269 2°18.233 -999 0.020495 0.121358 -1.244337
2009-02-06 14:41:18 51°29.257 2°18.232 -999 0.020701 0.122621 -1.244337
2009-02-06 14:42:19 51°29.226 2°18.248 -999 0.020186 0.119554 -1.279161
2009-02-06 14:43:19 51°29.2 2°18.244 -999 0.020392 0.120805 -1.244337
2009-02-06 14:44:18 51°29.176 2°18.243 -999 0.020495 0.121436 -1.244337
2009-02-06 14:45:19 51°29.157 2°18.258 -999 0.020598 0.122048 -1.279161
2009-02-06 14:46:18 51°29.145 2°18.273 -999 0.020392 0.120825 -1.244337
2009-02-06 14:47:19 51°29.132 2°18.282 -999 0.020289 0.120227 -1.244337
2009-02-06 14:48:18 51°29.122 2°18.287 -999 0.020495 0.12145 -1.244337
2009-02-06 14:49:18 51°29.114 2°18.292 -999 0.020598 0.122082 -1.244337
2009-02-06 14:50:19 51°29.109 2°18.297 -999 0.020495 0.121463 -1.279161
2009-02-06 14:51:18 51°29.107 2°18.3 -999 0.020495 0.121483 -1.279161
2009-02-06 14:52:19 51°29.105 2°18.299 -999 0.020598 0.122113 -1.244337
2009-02-06 14:53:18 51°29.103 2°18.295 -999 0.020495 0.121508 -1.244337
2009-02-06 14:54:19 51°29.103 2°18.289 -999 0.020495 0.121513 -1.244337
2009-02-06 14:55:18 51°29.103 2°18.282 -999 0.020495 0.121526 -1.244337
2009-02-06 14:56:19 51°29.102 2°18.281 -999 0.020598 0.122156 -1.279161
2009-02-06 14:57:18 51°29.11 2°18.312 -999 0.020701 0.122782 -1.279161
2009-02-06 14:58:19 51°29.131 2°18.327 -999 0.020392 0.12093 -1.244337
2009-02-06 14:59:19 51°29.147 2°18.33 -999 0.020392 0.120945 -1.244337
2009-02-06 15:00:19 51°29.16 2°18.33 -999 0.020495 0.121555 -1.279161
2009-02-06 15:01:19 51°29.169 2°18.328 -999 0.020392 0.120956 -1.279161
2009-02-06 15:02:18 51°29.173 2°18.324 -999 0.020392 0.120976 -1.244337
2009-02-06 15:03:19 51°29.176 2°18.316 -999 0.020392 0.120983 -1.244337
2009-02-06 15:04:18 51°29.176 2°18.308 -999 0.020392 0.120997 -1.244337
2009-02-06 15:05:19 51°29.176 2°18.299 -999 0.020495 0.121618 -1.279161
2009-02-06 15:06:18 51°29.176 2°18.292 -999 0.020598 0.122231 -1.244337
2009-02-06 15:07:18 51°29.174 2°18.349 -999 0.020289 0.120418 -1.244337
2009-02-06 15:08:18 51°29.109 2°18.467 -999 0.023891 0.141951 -1.279161
2009-02-06 15:09:18 51°29.007 2°18.676 -999 0.020701 0.122887 -1.279161
2009-02-06 15:10:18 51°28.903 2°18.941 -999 0.020701 0.12288 -1.279161
2009-02-06 15:11:18 51°28.793 2°19.204 -999 0.021009 0.124751 -1.279161
2009-02-06 15:12:18 51°28.645 2°19.416 -999 0.021524 0.127839 -1.244337
2009-02-06 15:13:18 51°28.48 2°19.6 -999 0.020701 0.122935 -1.244337
2009-02-06 15:14:18 51°28.313 2°19.781 -999 0.020701 0.123005 -1.279161
2009-02-06 15:15:18 51°28.15 2°19.967 -999 0.020906 0.124241 -1.279161
2009-02-06 15:16:18 51°28.013 2°20.193 -999 0.022656 0.134913 -1.279161
2009-02-06 15:17:18 51°27.88 2°20.427 -999 0.023273 0.138657 -1.244337
2009-02-06 15:18:18 51°27.75 2°20.664 -999 0.022553 0.134333 -1.244337
2009-02-06 15:19:18 51°27.614 2°20.897 -999 0.021833 0.129996 -1.244337
2009-02-06 15:20:18 51°27.475 2°21.126 -999 0.021833 0.129989 -1.244337
2009-02-06 15:21:18 51°27.34 2°21.36 -999 0.021627 0.128764 -1.244337
2009-02-06 15:22:18 51°27.201 2°21.59 -999 0.021421 0.127512 -1.244337
2009-02-06 15:23:18 51°27.065 2°21.823 -999 0.021009 0.125039 -1.244337
2009-02-06 15:24:18 51°26.928 2°22.055 -999 0.021421 0.127512 -1.279161
2009-02-06 15:25:18 51°26.787 2°22.28 -999 0.021318 0.126903 -1.279161
2009-02-06 15:26:18 51°26.646 2°22.503 -999 0.021318 0.126893 -1.279161
2009-02-06 15:27:18 51°26.51 2°22.728 -999 0.020906 0.124428 -1.244337
2009-02-06 15:28:18 51°26.377 2°22.957 -999 0.020803 0.123796 -1.279161
2009-02-06 15:29:18 51°26.238 2°23.182 -999 0.020906 0.124414 -1.279161
2009-02-06 15:30:18 51°26.09 2°23.399 -999 0.020598 0.12258 -1.244337
2009-02-06 15:31:18 51°25.942 2°23.616 -999 0.020598 0.122587 -1.279161
2009-02-06 15:32:18 51°25.791 2°23.83 -999 0.020598 0.122603 -1.279161
2009-02-06 15:33:18 51°25.641 2°24.043 -999 0.020701 0.123223 -1.279161
2009-02-06 15:34:18 51°25.494 2°24.261 -999 0.020495 0.121997 -1.279161
2009-02-06 15:35:18 51°25.352 2°24.483 -999 0.020701 0.12323 -1.244337
2009-02-06 15:36:18 51°25.203 2°24.698 -999 0.020906 0.124477 -1.244337
2009-02-06 15:37:18 51°25.058 2°24.917 -999 0.020803 0.123866 -1.244337
2009-02-06 15:38:18 51°24.923 2°25.15 -999 0.01998 0.11896 -1.244337
2009-02-06 15:39:18 51°24.788 2°25.385 -999 0.020495 0.122036 -1.244337
2009-02-06 15:40:18 51°24.658 2°25.624 -999 0.020186 0.120209 -1.244337
2009-02-06 15:41:18 51°24.523 2°25.858 -999 0.020186 0.120213 -1.244337
2009-02-06 15:42:18 51°24.391 2°26.094 -999 0.018848 0.112244 -1.244337
2009-02-06 15:43:18 51°24.257 2°26.328 -999 0.01926 0.11472 -1.244337
2009-02-06 15:44:18 51°24.119 2°26.556 -999 0.019157 0.114117 -1.244337
2009-02-06 15:45:18 51°23.984 2°26.787 -999 0.019774 0.117837 -1.244337
2009-02-06 15:46:18 51°23.857 2°27.015 -999 0.019672 0.117209 -1.244337
2009-02-06 15:47:19 51°23.724 2°27.24 -999 0.019466 0.115992 -1.244337
2009-02-06 15:48:18 51°23.593 2°27.465 -999 0.019672 0.117216 -1.244337
2009-02-06 15:49:18 51°23.458 2°27.695 -999 0.019774 0.117841 -1.244337
2009-02-06 15:50:18 51°23.331 2°27.937 -999 0.018745 0.111714 -1.244337
2009-02-06 15:51:18 51°23.198 2°28.172 -999 0.018437 0.109897 -1.244337
2009-02-06 15:52:18 51°23.064 2°28.405 -999 0.018745 0.11175 -1.244337
2009-02-06 15:53:18 51°22.938 2°28.646 -999 0.018231 0.108687 -1.244337
2009-02-06 15:54:18 51°22.807 2°28.881 -999 0.01854 0.110543 -1.244337
2009-02-06 15:55:18 51°22.676 2°29.115 -999 0.01854 0.110545 -1.244337
2009-02-06 15:56:18 51°22.549 2°29.352 -999 0.018848 0.112396 -1.244337
2009-02-06 15:57:18 51°22.418 2°29.582 -999 0.018437 0.109965 -1.244337
2009-02-06 15:58:18 51°22.287 2°29.81 -999 0.019054 0.113646 -1.244337
2009-02-06 15:59:18 51°22.153 2°30.032 -999 0.018951 0.113051 -1.244337
2009-02-06 16:00:18 51°22.021 2°30.254 -999 0.019672 0.117398 -1.244337
2009-02-06 16:01:19 51°21.897 2°30.489 -999 0.019569 0.11677 -1.244337
2009-02-06 16:02:18 51°21.773 2°30.713 -999 0.019466 0.116198 -1.244337
2009-02-06 16:03:19 51°21.638 2°30.939 -999 0.023273 0.139162 -1.244337
2009-02-06 16:04:18 51°21.51 2°31.158 -999 0.02317 0.138669 -1.279161
2009-02-06 16:05:19 51°21.388 2°31.398 -999 0.020289 0.121197 -1.279161
2009-02-06 16:06:18 51°21.299 2°31.652 -999 0.020495 0.122446 -1.244337
2009-02-06 16:07:18 51°21.21 2°31.914 -999 0.020083 0.120006 -1.279161
2009-02-06 16:08:18 51°21.099 2°32.162 -999 0.01998 0.119396 -1.279161
2009-02-06 16:09:18 51°20.944 2°32.361 -999 0.022141 0.132529 -1.279161
2009-02-06 16:10:18 51°20.786 2°32.559 -999 0.022038 0.131916 -1.279161
2009-02-06 16:11:18 51°20.648 2°32.785 -999 0.01926 0.115283 -1.279161
2009-02-06 16:12:18 51°20.533 2°33.038 -999 0.018951 0.113396 -1.279161
2009-02-06 16:13:18 51°20.417 2°33.289 -999 0.018642 0.111551 -1.279161
2009-02-06 16:14:18 51°20.3 2°33.54 -999 0.019157 0.114628 -1.279161
2009-02-06 16:15:18 51°20.187 2°33.794 -999 0.019054 0.114016 -1.279161
2009-02-06 16:16:18 51°20.074 2°34.047 -999 0.018951 0.113429 -1.279161
2009-02-06 16:17:18 51°19.964 2°34.3 -999 0.019569 0.117121 -1.279161
2009-02-06 16:18:18 51°19.852 2°34.549 -999 0.01926 0.115287 -1.279161
2009-02-06 16:19:19 51°19.741 2°34.803 -999 0.019157 0.114672 -1.279161
2009-02-06 16:20:18 51°19.638 2°35.048 -999 0.019466 0.116521 -1.279161
2009-02-06 16:21:19 51°19.52 2°35.297 -999 0.019877 0.118976 -1.279161
2009-02-06 16:22:18 51°19.412 2°35.545 -999 0.019466 0.116512 -1.279161
2009-02-06 16:23:18 51°19.302 2°35.798 -999 0.01926 0.115274 -1.279161
2009-02-06 16:24:19 51°19.186 2°36.051 -999 0.020186 0.120821 -1.279161
2009-02-06 16:25:18 51°19.084 2°36.305 -999 0.020083 0.120189 -1.279161
2009-02-06 16:26:19 51°18.985 2°36.572 -999 0.019774 0.11834 -1.279161
2009-02-06 16:27:18 51°18.887 2°36.828 -999 0.020392 0.122033 -1.279161
2009-02-06 16:28:18 51°18.789 2°37.087 -999 0.020392 0.122019 -1.279161
2009-02-06 16:29:18 51°18.689 2°37.348 -999 0.021112 0.126344 -1.279161
2009-02-06 16:30:18 51°18.595 2°37.622 -999 0.021112 0.126322 -1.279161
2009-02-06 16:31:18 51°18.498 2°37.895 -999 0.020186 0.120742 -1.279161
2009-02-06 16:32:18 51°18.393 2°38.164 -999 0.024405 0.146371 -1.139864
2009-02-06 16:33:18 51°18.306 2°38.447 -999 0.022965 0.137553 -1.174688
2009-02-06 16:34:18 51°18.218 2°38.73 -999 0.022038 0.131956 -1.174688
2009-02-06 16:35:19 51°18.134 2°39.021 -999 0.021421 0.128184 -1.174688
2009-02-06 16:36:18 51°18.048 2°39.299 -999 0.021318 0.127526 -1.174688
2009-02-06 16:37:19 51°17.963 2°39.586 -999 0.021215 0.126866 -1.174688
2009-02-06 16:38:18 51°17.886 2°39.861 -999 0.021627 0.12931 -1.209513
2009-02-06 16:39:19 51°17.808 2°40.143 -999 0.020804 0.124306 -1.209513
2009-02-06 16:40:18 51°17.723 2°40.412 -999 0.020598 0.123061 -1.174688
2009-02-06 16:41:18 51°17.644 2°40.689 -999 0.021009 0.125448 -1.209513
2009-02-06 16:42:19 51°17.563 2°40.972 -999 0.020906 0.124889 -1.209513
2009-02-06 16:43:18 51°17.481 2°41.246 -999 0.020598 0.123054 -1.209513
2009-02-06 16:44:19 51°17.391 2°41.527 -999 0.021318 0.127317 -1.209513
2009-02-06 16:45:18 51°17.312 2°41.803 -999 0.021215 0.126668 -1.209513
2009-02-06 16:46:18 51°17.233 2°42.087 -999 0.020804 0.124113 -1.209513
2009-02-06 16:47:18 51°17.155 2°42.374 -999 0.020906 0.124719 -1.209513
2009-02-06 16:48:18 51°17.084 2°42.654 -999 0.021112 0.125894 -1.209513
2009-02-06 16:49:18 51°17.01 2°42.931 -999 0.020495 0.122174 -1.209513
2009-02-06 16:50:18 51°16.932 2°43.211 -999 0.020701 0.123386 -1.209513
2009-02-06 16:51:19 51°16.849 2°43.497 -999 0.021318 0.127067 -1.209513
2009-02-06 16:52:18 51°16.77 2°43.777 -999 0.020186 0.120269 -1.209513
2009-02-06 16:53:19 51°16.698 2°44.073 -999 0.020495 0.122063 -1.209513
2009-02-06 16:54:18 51°16.635 2°44.363 -999 0.020186 0.1202 -1.209513
2009-02-06 16:55:19 51°16.567 2°44.662 -999 0.020186 0.120189 -1.209513
2009-02-06 16:56:18 51°16.496 2°44.951 -999 0.020289 0.120783 -1.209513
2009-02-06 16:57:18 51°16.429 2°45.251 -999 0.020186 0.120151 -1.209513
2009-02-06 16:58:18 51°16.365 2°45.553 -999 0.020392 0.121378 -1.209513
2009-02-06 16:59:18 51°16.308 2°45.857 -999 0.020289 0.120748 -1.209513
2009-02-06 17:00:19 51°16.259 2°46.168 -999 0.020803 0.12376 -1.209513
2009-02-06 17:01:18 51°16.206 2°46.467 -999 0.020186 0.120093 -1.209513
2009-02-06 17:02:18 51°16.15 2°46.771 -999 0.020289 0.120696 -1.244337
2009-02-06 17:03:18 51°16.091 2°47.073 -999 0.019569 0.116408 -1.209513
2009-02-06 17:04:18 51°16.029 2°47.375 -999 0.019672 0.117006 -1.244337
2009-02-06 17:05:18 51°15.98 2°47.68 -999 0.019569 0.11638 -1.244337
2009-02-06 17:06:18 51°15.934 2°47.983 -999 0.019672 0.116985 -1.209513
2009-02-06 17:07:18 51°15.887 2°48.282 -999 0.019877 0.118195 -1.209513
2009-02-06 17:08:18 51°15.841 2°48.582 -999 0.019774 0.11758 -1.244337
2009-02-06 17:09:19 51°15.799 2°48.888 -999 0.020083 0.119406 -1.244337
2009-02-06 17:10:18 51°15.764 2°49.188 -999 0.019672 0.116967 -1.244337
2009-02-06 17:11:19 51°15.726 2°49.499 -999 0.019774 0.117567 -1.244337
2009-02-06 17:12:18 51°15.682 2°49.8 -999 0.019672 0.116952 -1.244337
2009-02-06 17:13:19 51°15.633 2°50.111 -999 0.019569 0.116348 -1.209513
2009-02-06 17:14:18 51°15.579 2°50.408 -999 0.019774 0.117565 -1.244337
2009-02-06 17:15:19 51°15.513 2°50.707 -999 0.019569 0.116318 -1.209513
2009-02-06 17:16:19 51°15.447 2°50.997 -999 0.019774 0.117537 -1.209513
2009-02-06 17:17:18 51°15.387 2°51.279 -999 0.019569 0.116314 -1.209513
2009-02-06 17:18:19 51°15.329 2°51.57 -999 0.019672 0.116931 -1.244337
2009-02-06 17:19:18 51°15.269 2°51.851 -999 0.019157 0.113858 -1.244337
2009-02-06 17:20:19 51°15.199 2°52.139 -999 0.019569 0.116312 -1.244337
2009-02-06 17:21:18 51°15.132 2°52.42 -999 0.019054 0.113237 -1.244337
2009-02-06 17:22:18 51°15.044 2°52.695 -999 0.019466 0.115687 -1.244337
2009-02-06 17:23:19 51°14.956 2°52.975 -999 0.01926 0.114445 -1.244337
2009-02-06 17:24:18 51°14.885 2°53.258 -999 0.019774 0.117507 -1.244337
2009-02-06 17:25:19 51°14.837 2°53.559 -999 0.019569 0.116276 -1.244337
2009-02-06 17:26:18 51°14.798 2°53.855 -999 0.019466 0.115649 -1.244337
2009-02-06 17:27:19 51°14.746 2°54.144 -999 0.018437 0.109555 -1.244337
2009-02-06 17:28:18 51°14.66 2°54.406 -999 0.018848 0.112 -1.244337
2009-02-06 17:29:19 51°14.548 2°54.657 -999 0.018231 0.108328 -1.244337
2009-02-06 17:30:18 51°14.433 2°54.892 -999 0.01854 0.110153 -1.244337
2009-02-06 17:31:19 51°14.32 2°55.146 -999 0.018437 0.109543 -1.244337
2009-02-06 17:32:19 51°14.185 2°55.353 -999 0.018437 0.109521 -1.244337
2009-02-06 17:33:19 51°14.042 2°55.471 -999 0.018642 0.110753 -1.244337
2009-02-06 17:34:19 51°13.91 2°55.567 -999 0.018745 0.111359 -1.244337
2009-02-06 17:35:18 51°13.805 2°55.648 -999 0.019363 0.115041 -1.244337
2009-02-06 17:36:19 51°13.723 2°55.769 -999 0.019054 0.113183 -1.244337
2009-02-06 17:37:18 51°13.674 2°55.884 -999 0.019363 0.115029 -1.244337
2009-02-06 17:38:19 51°13.66 2°55.954 -999 0.019157 0.113773 -1.244337
2009-02-06 17:39:19 51°13.66 2°55.959 -999 0.019672 0.116826 -1.244337